CDT,Max TemperatureF,Mean TemperatureF,Min TemperatureF,Max Dew PointF,MeanDew PointF,Min DewpointF,Max Humidity, Mean Humidity, Min Humidity, Max Sea Level PressureIn, Mean Sea Level PressureIn, Min Sea Level PressureIn, Max VisibilityMiles, Mean VisibilityMiles, Min VisibilityMiles, Max Wind SpeedMPH, Mean Wind SpeedMPH, Max Gust SpeedMPH,PrecipitationIn, CloudCover, Events, WindDirDegrees
2013-7-1,76,65,53,53,49,43,86,57,34,30.07,30.04,29.98,10,10,10,23,12,31,0.00,0,,28
2013-7-2,69,62,54,54,53,51,89,72,57,30.09,30.07,30.05,10,10,9,16,9,23,T,4,Rain,26
2013-7-3,68,63,58,63,60,54,100,91,77,30.08,30.05,30.02,10,6,0,9,3,12,0.25,7,Fog-Rain,10
2013-7-4,82,68,53,64,60,53,100,81,54,30.10,30.07,30.03,10,7,0,15,6,20,0.00,1,Fog,179
2013-7-5,85,72,58,66,61,57,94,72,41,30.09,30.05,30.01,10,7,2,13,5,17,0.00,0,,194
2013-7-6,83,72,61,67,64,60,94,76,54,30.07,30.03,29.98,10,8,2,10,4,13,0.00,0,,181
2013-7-7,88,78,68,70,68,65,93,74,55,30.01,29.98,29.95,10,9,5,15,7,22,0.00,0,,194
2013-7-8,86,79,71,75,71,68,94,85,67,30.03,29.98,29.93,10,7,0,22,11,28,1.83,5,Fog-Rain,218
2013-7-9,84,77,70,76,73,71,100,87,72,30.00,29.94,29.86,10,7,2,25,7,33,0.03,2,Rain,216
2013-7-10,83,73,63,75,65,56,97,70,47,30.01,29.90,29.84,10,9,4,18,8,23,0.00,1,,318
2013-7-11,81,70,58,60,55,51,90,62,38,30.10,30.07,30.02,10,9,5,15,5,18,0.00,0,,40
2013-7-12,85,70,55,58,51,39,90,55,24,30.16,30.11,30.07,10,10,10,13,3,16,0.00,0,,65
2013-7-13,84,71,57,61,58,55,93,62,39,30.16,30.13,30.10,10,10,8,13,5,16,0.00,0,,103
2013-7-14,89,78,66,69,66,61,87,67,51,30.21,30.18,30.14,10,10,9,10,6,14,0.00,1,,88
2013-7-15,91,80,68,75,71,66,93,76,50,30.26,30.24,30.21,10,9,4,14,3,17,0.05,2,Rain,93
2013-7-16,91,81,71,74,73,71,96,76,55,30.30,30.27,30.24,10,8,2,13,6,20,0.00,1,,210
2013-7-17,92,83,73,74,72,70,90,70,53,30.32,30.25,30.17,10,10,9,14,5,20,0.00,0,,233
2013-7-18,93,83,72,77,73,70,94,75,52,30.18,30.07,29.96,10,9,0,29,6,35,0.60,1,Rain,221
2013-7-19,93,83,72,74,71,68,90,70,45,29.94,29.84,29.76,10,9,2,26,12,35,0.42,1,Rain-Thunderstorm,236
2013-7-20,87,77,67,70,64,60,93,72,41,29.97,29.89,29.81,10,8,1,29,5,35,0.74,3,Rain-Thunderstorm,360
2013-7-21,86,75,63,69,65,62,97,77,51,29.96,29.92,29.85,10,10,10,24,7,29,0.00,2,,75
2013-7-22,86,76,66,70,67,62,94,78,49,29.86,29.82,29.74,10,8,4,26,6,41,0.08,4,Rain,214
2013-7-23,79,68,56,65,60,54,93,72,48,29.99,29.83,29.68,10,10,8,21,9,25,0.01,3,Rain,345
2013-7-24,74,63,52,54,52,50,97,68,46,30.07,30.03,29.98,10,10,10,14,6,18,0.00,0,,37
2013-7-25,79,66,53,60,55,51,93,67,45,30.11,30.07,30.04,10,10,9,10,4,15,0.00,1,,231
2013-7-26,72,66,60,65,62,58,94,87,68,30.03,29.96,29.89,10,8,2,15,8,21,0.50,6,Rain,195
2013-7-27,64,59,53,57,52,45,94,77,56,29.93,29.91,29.88,10,10,10,17,9,22,0.00,6,,306
2013-7-28,69,61,53,52,49,47,86,70,49,30.03,29.94,29.88,10,10,10,17,8,21,T,5,Rain,277
2013-7-29,77,65,52,58,55,50,90,70,51,30.18,30.12,30.03,10,10,10,14,5,17,0.00,2,,297
2013-7-30,71,63,55,64,60,54,94,85,68,30.18,30.13,30.08,10,8,2,12,4,16,0.16,6,Rain,130
2013-7-31,75,68,60,66,64,60,100,91,71,30.08,30.02,29.96,10,5,0,17,3,21,0.28,7,Fog-Rain,352